Terminal Aerodrome Forecast
Issued by NWS

Home | Current Version | Previous Version | Text Only | Print | Product List | Glossary On
Versions: 1 2 3 4 5 6 7 8 9 10 11 12 13 14 15
000
FTUS43 KLSX 221100
TAFSUS
TAF
KSUS 221120Z 2212/2312 20006KT P6SM FEW250
     FM230600 32010G25KT 4SM TSRA BR BKN050CB OVC150
     FM230800 35007KT P6SM SCT050 BKN250=

USA.gov is the U.S. government's official web portal to all federal, state and local government web resources and services.